sensor_id;sensor_type;location;lat;lon;timestamp;P1;durP1;ratioP1;P2;durP2;ratioP2
1585;SDS011;786;48.718;9.514;2024-01-25T00:02:01;4.28;;;2.08;;
1585;SDS011;786;48.718;9.514;2024-01-25T00:04:28;5.72;;;2.58;;
1585;SDS011;786;48.718;9.514;2024-01-25T00:06:54;7.32;;;1.63;;
1585;SDS011;786;48.718;9.514;2024-01-25T00:09:20;6.90;;;2.25;;
1585;SDS011;786;48.718;9.514;2024-01-25T00:11:47;10.00;;;2.08;;
1585;SDS011;786;48.718;9.514;2024-01-25T00:14:13;8.13;;;1.95;;
1585;SDS011;786;48.718;9.514;2024-01-25T00:16:40;4.57;;;2.00;;
1585;SDS011;786;48.718;9.514;2024-01-25T00:19:08;5.03;;;1.83;;
1585;SDS011;786;48.718;9.514;2024-01-25T00:21:34;8.88;;;2.13;;
1585;SDS011;786;48.718;9.514;2024-01-25T00:24:01;8.05;;;2.00;;
1585;SDS011;786;48.718;9.514;2024-01-25T00:26:27;6.20;;;2.15;;
1585;SDS011;786;48.718;9.514;2024-01-25T00:28:54;7.03;;;1.90;;
1585;SDS011;786;48.718;9.514;2024-01-25T00:31:20;5.78;;;1.42;;
1585;SDS011;786;48.718;9.514;2024-01-25T00:33:46;6.47;;;1.58;;
1585;SDS011;786;48.718;9.514;2024-01-25T00:36:15;7.40;;;2.05;;
1585;SDS011;786;48.718;9.514;2024-01-25T00:38:42;7.25;;;2.10;;
1585;SDS011;786;48.718;9.514;2024-01-25T00:41:09;3.88;;;1.80;;
1585;SDS011;786;48.718;9.514;2024-01-25T00:43:36;5.35;;;1.80;;
1585;SDS011;786;48.718;9.514;2024-01-25T00:46:03;7.03;;;2.15;;
1585;SDS011;786;48.718;9.514;2024-01-25T00:48:30;8.50;;;1.85;;
1585;SDS011;786;48.718;9.514;2024-01-25T00:50:57;6.68;;;1.67;;
1585;SDS011;786;48.718;9.514;2024-01-25T00:53:25;8.18;;;2.03;;
1585;SDS011;786;48.718;9.514;2024-01-25T00:55:52;7.88;;;3.00;;
1585;SDS011;786;48.718;9.514;2024-01-25T00:58:19;9.88;;;3.45;;
1585;SDS011;786;48.718;9.514;2024-01-25T01:00:46;5.88;;;2.00;;
1585;SDS011;786;48.718;9.514;2024-01-25T01:03:12;7.50;;;1.77;;
1585;SDS011;786;48.718;9.514;2024-01-25T01:05:40;6.90;;;2.78;;
1585;SDS011;786;48.718;9.514;2024-01-25T01:08:07;4.82;;;1.73;;
1585;SDS011;786;48.718;9.514;2024-01-25T01:10:35;3.03;;;1.55;;
1585;SDS011;786;48.718;9.514;2024-01-25T01:13:02;6.30;;;1.90;;
1585;SDS011;786;48.718;9.514;2024-01-25T01:15:28;5.88;;;2.10;;
1585;SDS011;786;48.718;9.514;2024-01-25T01:17:55;6.93;;;1.73;;
1585;SDS011;786;48.718;9.514;2024-01-25T01:20:21;8.18;;;1.90;;
1585;SDS011;786;48.718;9.514;2024-01-25T01:22:47;8.45;;;1.70;;
1585;SDS011;786;48.718;9.514;2024-01-25T01:25:14;5.80;;;2.03;;
1585;SDS011;786;48.718;9.514;2024-01-25T01:27:41;9.45;;;2.50;;
1585;SDS011;786;48.718;9.514;2024-01-25T01:30:08;6.65;;;1.60;;
1585;SDS011;786;48.718;9.514;2024-01-25T01:32:35;6.70;;;2.10;;
1585;SDS011;786;48.718;9.514;2024-01-25T01:35:01;7.65;;;2.00;;
1585;SDS011;786;48.718;9.514;2024-01-25T01:37:28;11.02;;;2.75;;
1585;SDS011;786;48.718;9.514;2024-01-25T01:39:55;6.57;;;1.85;;
1585;SDS011;786;48.718;9.514;2024-01-25T01:42:23;11.90;;;2.65;;
1585;SDS011;786;48.718;9.514;2024-01-25T01:44:50;7.03;;;2.20;;
1585;SDS011;786;48.718;9.514;2024-01-25T01:47:18;6.85;;;2.65;;
1585;SDS011;786;48.718;9.514;2024-01-25T01:49:45;5.10;;;1.75;;
1585;SDS011;786;48.718;9.514;2024-01-25T01:52:11;4.15;;;1.63;;
1585;SDS011;786;48.718;9.514;2024-01-25T01:54:38;4.82;;;2.08;;
1585;SDS011;786;48.718;9.514;2024-01-25T01:57:04;7.13;;;2.00;;
1585;SDS011;786;48.718;9.514;2024-01-25T01:59:31;10.23;;;2.63;;
1585;SDS011;786;48.718;9.514;2024-01-25T02:01:59;10.63;;;1.90;;
1585;SDS011;786;48.718;9.514;2024-01-25T02:04:25;6.95;;;2.40;;
1585;SDS011;786;48.718;9.514;2024-01-25T02:06:51;5.38;;;2.10;;
1585;SDS011;786;48.718;9.514;2024-01-25T02:09:18;8.93;;;1.95;;
1585;SDS011;786;48.718;9.514;2024-01-25T02:11:44;10.23;;;2.28;;
1585;SDS011;786;48.718;9.514;2024-01-25T02:14:10;10.20;;;2.67;;
1585;SDS011;786;48.718;9.514;2024-01-25T02:16:38;7.93;;;2.63;;
1585;SDS011;786;48.718;9.514;2024-01-25T02:19:05;8.05;;;2.65;;
1585;SDS011;786;48.718;9.514;2024-01-25T02:21:32;11.43;;;2.90;;
1585;SDS011;786;48.718;9.514;2024-01-25T02:23:59;6.57;;;2.20;;
1585;SDS011;786;48.718;9.514;2024-01-25T02:26:26;11.07;;;2.70;;
1585;SDS011;786;48.718;9.514;2024-01-25T02:28:52;10.15;;;2.28;;
1585;SDS011;786;48.718;9.514;2024-01-25T02:31:18;10.55;;;2.63;;
1585;SDS011;786;48.718;9.514;2024-01-25T02:33:45;7.38;;;2.03;;
1585;SDS011;786;48.718;9.514;2024-01-25T02:36:11;12.80;;;2.75;;
1585;SDS011;786;48.718;9.514;2024-01-25T02:38:37;9.00;;;2.20;;
1585;SDS011;786;48.718;9.514;2024-01-25T02:41:05;10.02;;;2.03;;
1585;SDS011;786;48.718;9.514;2024-01-25T02:43:31;15.05;;;3.47;;
1585;SDS011;786;48.718;9.514;2024-01-25T02:45:58;9.70;;;2.67;;
1585;SDS011;786;48.718;9.514;2024-01-25T02:48:25;10.85;;;2.70;;
1585;SDS011;786;48.718;9.514;2024-01-25T02:50:51;5.95;;;1.52;;
1585;SDS011;786;48.718;9.514;2024-01-25T02:53:17;7.78;;;2.45;;
1585;SDS011;786;48.718;9.514;2024-01-25T02:55:44;10.85;;;3.28;;
1585;SDS011;786;48.718;9.514;2024-01-25T02:58:11;11.05;;;3.42;;
1585;SDS011;786;48.718;9.514;2024-01-25T03:00:38;9.95;;;2.20;;
1585;SDS011;786;48.718;9.514;2024-01-25T03:03:04;9.52;;;2.20;;
1585;SDS011;786;48.718;9.514;2024-01-25T03:05:30;5.70;;;2.30;;
1585;SDS011;786;48.718;9.514;2024-01-25T03:07:57;5.40;;;1.70;;
1585;SDS011;786;48.718;9.514;2024-01-25T03:10:23;8.52;;;2.28;;
1585;SDS011;786;48.718;9.514;2024-01-25T03:12:49;10.02;;;2.63;;
1585;SDS011;786;48.718;9.514;2024-01-25T03:15:17;6.25;;;2.20;;
1585;SDS011;786;48.718;9.514;2024-01-25T03:17:43;6.03;;;1.70;;
1585;SDS011;786;48.718;9.514;2024-01-25T03:20:10;10.82;;;1.90;;
1585;SDS011;786;48.718;9.514;2024-01-25T03:22:36;7.47;;;2.10;;
1585;SDS011;786;48.718;9.514;2024-01-25T03:25:03;5.32;;;1.70;;
1585;SDS011;786;48.718;9.514;2024-01-25T03:27:30;7.45;;;2.08;;
1585;SDS011;786;48.718;9.514;2024-01-25T03:29:56;12.95;;;3.22;;
1585;SDS011;786;48.718;9.514;2024-01-25T03:32:24;14.77;;;2.88;;
1585;SDS011;786;48.718;9.514;2024-01-25T03:34:50;14.05;;;3.28;;
1585;SDS011;786;48.718;9.514;2024-01-25T03:37:17;10.32;;;1.90;;
1585;SDS011;786;48.718;9.514;2024-01-25T03:39:43;8.05;;;1.90;;
1585;SDS011;786;48.718;9.514;2024-01-25T03:42:10;5.75;;;2.13;;
1585;SDS011;786;48.718;9.514;2024-01-25T03:44:36;7.70;;;2.50;;
1585;SDS011;786;48.718;9.514;2024-01-25T03:47:02;8.70;;;2.13;;
1585;SDS011;786;48.718;9.514;2024-01-25T03:49:30;9.63;;;2.17;;
1585;SDS011;786;48.718;9.514;2024-01-25T03:51:57;9.30;;;2.15;;
1585;SDS011;786;48.718;9.514;2024-01-25T03:54:23;10.07;;;3.30;;
1585;SDS011;786;48.718;9.514;2024-01-25T03:56:49;9.50;;;1.75;;
1585;SDS011;786;48.718;9.514;2024-01-25T03:59:16;9.02;;;2.17;;
1585;SDS011;786;48.718;9.514;2024-01-25T04:01:43;6.88;;;2.35;;
1585;SDS011;786;48.718;9.514;2024-01-25T04:04:09;10.75;;;2.33;;
1585;SDS011;786;48.718;9.514;2024-01-25T04:06:40;8.07;;;1.80;;
1585;SDS011;786;48.718;9.514;2024-01-25T04:09:06;7.30;;;2.20;;
1585;SDS011;786;48.718;9.514;2024-01-25T04:11:33;8.75;;;1.80;;
1585;SDS011;786;48.718;9.514;2024-01-25T04:13:59;7.13;;;2.67;;
1585;SDS011;786;48.718;9.514;2024-01-25T04:16:25;7.90;;;2.10;;
1585;SDS011;786;48.718;9.514;2024-01-25T04:18:52;7.15;;;2.15;;
1585;SDS011;786;48.718;9.514;2024-01-25T04:21:18;10.55;;;3.17;;
1585;SDS011;786;48.718;9.514;2024-01-25T04:23:46;8.43;;;2.42;;
1585;SDS011;786;48.718;9.514;2024-01-25T04:26:12;11.18;;;2.95;;
1585;SDS011;786;48.718;9.514;2024-01-25T04:28:39;11.00;;;3.22;;
1585;SDS011;786;48.718;9.514;2024-01-25T04:31:05;9.43;;;2.25;;
1585;SDS011;786;48.718;9.514;2024-01-25T04:33:32;9.32;;;2.72;;
1585;SDS011;786;48.718;9.514;2024-01-25T04:35:58;11.52;;;3.08;;
1585;SDS011;786;48.718;9.514;2024-01-25T04:38:24;11.68;;;2.47;;
1585;SDS011;786;48.718;9.514;2024-01-25T04:40:52;6.05;;;1.90;;
1585;SDS011;786;48.718;9.514;2024-01-25T04:43:18;7.55;;;1.85;;
1585;SDS011;786;48.718;9.514;2024-01-25T04:45:45;11.13;;;2.08;;
1585;SDS011;786;48.718;9.514;2024-01-25T04:48:11;11.85;;;2.20;;
1585;SDS011;786;48.718;9.514;2024-01-25T04:50:37;7.95;;;2.15;;
1585;SDS011;786;48.718;9.514;2024-01-25T04:53:05;6.95;;;2.70;;
1585;SDS011;786;48.718;9.514;2024-01-25T04:55:31;13.50;;;3.60;;
1585;SDS011;786;48.718;9.514;2024-01-25T04:57:59;7.65;;;2.60;;
1585;SDS011;786;48.718;9.514;2024-01-25T05:00:25;8.27;;;2.47;;
1585;SDS011;786;48.718;9.514;2024-01-25T05:02:51;8.20;;;2.53;;
1585;SDS011;786;48.718;9.514;2024-01-25T05:05:18;10.35;;;2.42;;
1585;SDS011;786;48.718;9.514;2024-01-25T05:07:44;8.45;;;2.53;;
1585;SDS011;786;48.718;9.514;2024-01-25T05:10:11;6.85;;;2.30;;
1585;SDS011;786;48.718;9.514;2024-01-25T05:12:37;7.07;;;2.65;;
1585;SDS011;786;48.718;9.514;2024-01-25T05:15:06;9.48;;;2.13;;
1585;SDS011;786;48.718;9.514;2024-01-25T05:17:33;6.75;;;2.42;;
1585;SDS011;786;48.718;9.514;2024-01-25T05:19:59;8.43;;;2.97;;
1585;SDS011;786;48.718;9.514;2024-01-25T05:22:26;11.20;;;2.53;;
1585;SDS011;786;48.718;9.514;2024-01-25T05:24:52;10.80;;;2.55;;
1585;SDS011;786;48.718;9.514;2024-01-25T05:27:18;11.90;;;2.97;;
1585;SDS011;786;48.718;9.514;2024-01-25T05:29:44;13.45;;;2.70;;
1585;SDS011;786;48.718;9.514;2024-01-25T05:32:11;7.70;;;2.95;;
1585;SDS011;786;48.718;9.514;2024-01-25T05:34:38;6.85;;;1.85;;
1585;SDS011;786;48.718;9.514;2024-01-25T05:37:04;7.28;;;2.20;;
1585;SDS011;786;48.718;9.514;2024-01-25T05:39:30;8.95;;;2.55;;
1585;SDS011;786;48.718;9.514;2024-01-25T05:41:57;5.05;;;1.75;;
1585;SDS011;786;48.718;9.514;2024-01-25T05:44:24;6.88;;;2.20;;
1585;SDS011;786;48.718;9.514;2024-01-25T05:46:50;15.15;;;3.67;;
1585;SDS011;786;48.718;9.514;2024-01-25T05:49:18;6.13;;;2.83;;
1585;SDS011;786;48.718;9.514;2024-01-25T05:51:44;11.85;;;2.33;;
1585;SDS011;786;48.718;9.514;2024-01-25T05:54:10;10.02;;;2.85;;
1585;SDS011;786;48.718;9.514;2024-01-25T05:56:37;9.15;;;2.53;;
1585;SDS011;786;48.718;9.514;2024-01-25T05:59:03;9.18;;;2.40;;
1585;SDS011;786;48.718;9.514;2024-01-25T06:01:29;13.65;;;2.67;;
1585;SDS011;786;48.718;9.514;2024-01-25T06:03:56;9.63;;;2.38;;
1585;SDS011;786;48.718;9.514;2024-01-25T06:06:24;8.02;;;2.92;;
1585;SDS011;786;48.718;9.514;2024-01-25T06:08:50;9.90;;;2.78;;
1585;SDS011;786;48.718;9.514;2024-01-25T06:11:16;12.95;;;2.80;;
1585;SDS011;786;48.718;9.514;2024-01-25T06:13:43;11.25;;;2.65;;
1585;SDS011;786;48.718;9.514;2024-01-25T06:16:09;7.97;;;2.05;;
1585;SDS011;786;48.718;9.514;2024-01-25T06:18:36;13.50;;;2.90;;
1585;SDS011;786;48.718;9.514;2024-01-25T06:21:02;11.77;;;2.90;;
1585;SDS011;786;48.718;9.514;2024-01-25T06:23:30;10.15;;;2.65;;
1585;SDS011;786;48.718;9.514;2024-01-25T06:25:56;12.90;;;2.67;;
1585;SDS011;786;48.718;9.514;2024-01-25T06:28:22;15.60;;;2.38;;
1585;SDS011;786;48.718;9.514;2024-01-25T06:30:49;11.82;;;2.40;;
1585;SDS011;786;48.718;9.514;2024-01-25T06:33:15;11.35;;;2.42;;
1585;SDS011;786;48.718;9.514;2024-01-25T06:35:42;16.25;;;2.78;;
1585;SDS011;786;48.718;9.514;2024-01-25T06:38:09;13.25;;;3.30;;
1585;SDS011;786;48.718;9.514;2024-01-25T06:40:36;17.08;;;3.97;;
1585;SDS011;786;48.718;9.514;2024-01-25T06:43:03;13.10;;;3.17;;
1585;SDS011;786;48.718;9.514;2024-01-25T06:45:30;12.25;;;3.85;;
1585;SDS011;786;48.718;9.514;2024-01-25T06:47:56;12.18;;;5.03;;
1585;SDS011;786;48.718;9.514;2024-01-25T06:50:23;10.45;;;5.03;;
1585;SDS011;786;48.718;9.514;2024-01-25T06:52:49;11.57;;;5.57;;
1585;SDS011;786;48.718;9.514;2024-01-25T06:55:18;10.02;;;3.22;;
1585;SDS011;786;48.718;9.514;2024-01-25T06:57:46;9.43;;;4.90;;
1585;SDS011;786;48.718;9.514;2024-01-25T07:00:13;9.18;;;4.15;;
1585;SDS011;786;48.718;9.514;2024-01-25T07:02:40;12.15;;;4.55;;
1585;SDS011;786;48.718;9.514;2024-01-25T07:05:07;30.88;;;6.57;;
1585;SDS011;786;48.718;9.514;2024-01-25T07:07:34;24.25;;;7.25;;
1585;SDS011;786;48.718;9.514;2024-01-25T07:10:00;18.48;;;4.93;;
1585;SDS011;786;48.718;9.514;2024-01-25T07:12:27;19.08;;;5.72;;
1585;SDS011;786;48.718;9.514;2024-01-25T07:14:54;15.00;;;4.10;;
1585;SDS011;786;48.718;9.514;2024-01-25T07:17:21;21.33;;;3.83;;
1585;SDS011;786;48.718;9.514;2024-01-25T07:19:47;17.35;;;3.50;;
1585;SDS011;786;48.718;9.514;2024-01-25T07:22:14;10.55;;;3.08;;
1585;SDS011;786;48.718;9.514;2024-01-25T07:24:42;14.65;;;4.30;;
1585;SDS011;786;48.718;9.514;2024-01-25T07:27:08;12.57;;;4.18;;
1585;SDS011;786;48.718;9.514;2024-01-25T07:29:36;14.02;;;3.47;;
1585;SDS011;786;48.718;9.514;2024-01-25T07:32:04;20.75;;;5.93;;
1585;SDS011;786;48.718;9.514;2024-01-25T07:34:30;19.77;;;6.95;;
1585;SDS011;786;48.718;9.514;2024-01-25T07:36:57;21.13;;;7.05;;
1585;SDS011;786;48.718;9.514;2024-01-25T07:39:23;23.45;;;7.72;;
1585;SDS011;786;48.718;9.514;2024-01-25T07:41:49;19.60;;;7.43;;
1585;SDS011;786;48.718;9.514;2024-01-25T07:44:16;25.88;;;9.20;;
1585;SDS011;786;48.718;9.514;2024-01-25T07:46:44;18.70;;;6.75;;
1585;SDS011;786;48.718;9.514;2024-01-25T07:49:12;22.65;;;6.95;;
1585;SDS011;786;48.718;9.514;2024-01-25T07:51:38;12.05;;;5.28;;
1585;SDS011;786;48.718;9.514;2024-01-25T07:54:04;9.27;;;4.32;;
1585;SDS011;786;48.718;9.514;2024-01-25T07:56:31;15.93;;;3.92;;
1585;SDS011;786;48.718;9.514;2024-01-25T07:58:57;12.52;;;4.35;;
1585;SDS011;786;48.718;9.514;2024-01-25T08:01:25;11.30;;;5.15;;
1585;SDS011;786;48.718;9.514;2024-01-25T08:03:51;9.50;;;4.00;;
1585;SDS011;786;48.718;9.514;2024-01-25T08:06:19;12.75;;;4.60;;
1585;SDS011;786;48.718;9.514;2024-01-25T08:08:45;11.82;;;5.13;;
1585;SDS011;786;48.718;9.514;2024-01-25T08:11:11;16.70;;;5.30;;
1585;SDS011;786;48.718;9.514;2024-01-25T08:13:38;14.90;;;5.28;;
1585;SDS011;786;48.718;9.514;2024-01-25T08:16:08;8.93;;;3.40;;
1585;SDS011;786;48.718;9.514;2024-01-25T08:18:35;8.88;;;3.55;;
1585;SDS011;786;48.718;9.514;2024-01-25T08:21:01;10.25;;;3.03;;
1585;SDS011;786;48.718;9.514;2024-01-25T08:23:29;6.82;;;2.50;;
1585;SDS011;786;48.718;9.514;2024-01-25T08:25:56;5.38;;;2.55;;
1585;SDS011;786;48.718;9.514;2024-01-25T08:28:22;5.70;;;2.78;;
1585;SDS011;786;48.718;9.514;2024-01-25T08:30:48;6.75;;;3.05;;
1585;SDS011;786;48.718;9.514;2024-01-25T08:33:15;7.55;;;2.90;;
1585;SDS011;786;48.718;9.514;2024-01-25T08:35:41;5.72;;;2.15;;
1585;SDS011;786;48.718;9.514;2024-01-25T08:38:08;5.70;;;2.13;;
1585;SDS011;786;48.718;9.514;2024-01-25T08:40:35;5.65;;;2.25;;
1585;SDS011;786;48.718;9.514;2024-01-25T08:43:02;7.63;;;2.40;;
1585;SDS011;786;48.718;9.514;2024-01-25T08:45:29;5.00;;;2.20;;
1585;SDS011;786;48.718;9.514;2024-01-25T08:47:56;5.55;;;2.63;;
1585;SDS011;786;48.718;9.514;2024-01-25T08:50:22;5.95;;;2.40;;
1585;SDS011;786;48.718;9.514;2024-01-25T08:52:48;6.85;;;2.28;;
1585;SDS011;786;48.718;9.514;2024-01-25T08:55:15;5.90;;;2.40;;
1585;SDS011;786;48.718;9.514;2024-01-25T08:57:42;7.10;;;3.75;;
1585;SDS011;786;48.718;9.514;2024-01-25T09:00:09;8.25;;;3.67;;
1585;SDS011;786;48.718;9.514;2024-01-25T09:02:36;7.05;;;2.78;;
1585;SDS011;786;48.718;9.514;2024-01-25T09:05:03;7.65;;;2.90;;
1585;SDS011;786;48.718;9.514;2024-01-25T09:07:30;7.80;;;3.25;;
1585;SDS011;786;48.718;9.514;2024-01-25T09:09:56;7.25;;;3.05;;
1585;SDS011;786;48.718;9.514;2024-01-25T09:12:23;8.63;;;3.03;;
1585;SDS011;786;48.718;9.514;2024-01-25T09:14:50;8.00;;;2.85;;
1585;SDS011;786;48.718;9.514;2024-01-25T09:17:17;7.65;;;2.88;;
1585;SDS011;786;48.718;9.514;2024-01-25T09:19:46;6.00;;;2.63;;
1585;SDS011;786;48.718;9.514;2024-01-25T09:22:13;6.35;;;2.58;;
1585;SDS011;786;48.718;9.514;2024-01-25T09:24:41;8.05;;;2.33;;
1585;SDS011;786;48.718;9.514;2024-01-25T09:27:08;5.43;;;2.05;;
1585;SDS011;786;48.718;9.514;2024-01-25T09:29:34;4.43;;;2.25;;
1585;SDS011;786;48.718;9.514;2024-01-25T09:32:02;7.53;;;2.47;;
1585;SDS011;786;48.718;9.514;2024-01-25T09:34:29;5.20;;;2.58;;
1585;SDS011;786;48.718;9.514;2024-01-25T09:36:55;4.88;;;2.30;;
1585;SDS011;786;48.718;9.514;2024-01-25T09:39:22;4.43;;;2.50;;
1585;SDS011;786;48.718;9.514;2024-01-25T09:41:48;5.80;;;2.10;;
1585;SDS011;786;48.718;9.514;2024-01-25T09:44:14;6.03;;;2.45;;
1585;SDS011;786;48.718;9.514;2024-01-25T09:46:42;6.05;;;2.53;;
1585;SDS011;786;48.718;9.514;2024-01-25T09:49:11;6.60;;;2.72;;
1585;SDS011;786;48.718;9.514;2024-01-25T09:51:38;7.95;;;2.33;;
1585;SDS011;786;48.718;9.514;2024-01-25T09:54:06;6.60;;;2.83;;
1585;SDS011;786;48.718;9.514;2024-01-25T09:56:33;7.47;;;3.60;;
1585;SDS011;786;48.718;9.514;2024-01-25T09:59:00;7.10;;;3.55;;
1585;SDS011;786;48.718;9.514;2024-01-25T10:01:26;7.97;;;2.75;;
1585;SDS011;786;48.718;9.514;2024-01-25T10:03:53;6.90;;;3.05;;
1585;SDS011;786;48.718;9.514;2024-01-25T10:06:22;5.75;;;3.40;;
1585;SDS011;786;48.718;9.514;2024-01-25T10:08:49;8.23;;;2.72;;
1585;SDS011;786;48.718;9.514;2024-01-25T10:11:16;7.78;;;3.25;;
1585;SDS011;786;48.718;9.514;2024-01-25T10:13:42;6.75;;;2.53;;
1585;SDS011;786;48.718;9.514;2024-01-25T10:16:10;7.75;;;3.17;;
1585;SDS011;786;48.718;9.514;2024-01-25T10:18:37;8.85;;;3.67;;
1585;SDS011;786;48.718;9.514;2024-01-25T10:21:04;6.07;;;3.40;;
1585;SDS011;786;48.718;9.514;2024-01-25T10:23:32;9.45;;;3.22;;
1585;SDS011;786;48.718;9.514;2024-01-25T10:25:59;8.13;;;3.13;;
1585;SDS011;786;48.718;9.514;2024-01-25T10:28:25;6.57;;;2.50;;
1585;SDS011;786;48.718;9.514;2024-01-25T10:30:55;7.95;;;2.63;;
1585;SDS011;786;48.718;9.514;2024-01-25T10:33:22;8.23;;;4.05;;
1585;SDS011;786;48.718;9.514;2024-01-25T10:35:49;8.18;;;3.17;;
1585;SDS011;786;48.718;9.514;2024-01-25T10:38:16;8.13;;;2.83;;
1585;SDS011;786;48.718;9.514;2024-01-25T10:40:44;8.50;;;3.13;;
1585;SDS011;786;48.718;9.514;2024-01-25T10:43:12;9.15;;;3.03;;
1585;SDS011;786;48.718;9.514;2024-01-25T10:45:38;8.60;;;2.75;;
1585;SDS011;786;48.718;9.514;2024-01-25T10:48:05;9.55;;;2.75;;
1585;SDS011;786;48.718;9.514;2024-01-25T10:50:33;8.20;;;2.88;;
1585;SDS011;786;48.718;9.514;2024-01-25T10:52:59;7.18;;;2.63;;
1585;SDS011;786;48.718;9.514;2024-01-25T10:55:26;7.72;;;2.70;;
1585;SDS011;786;48.718;9.514;2024-01-25T10:57:54;8.98;;;3.17;;
1585;SDS011;786;48.718;9.514;2024-01-25T11:00:20;9.35;;;3.85;;
1585;SDS011;786;48.718;9.514;2024-01-25T11:02:47;6.50;;;2.70;;
1585;SDS011;786;48.718;9.514;2024-01-25T11:05:15;8.40;;;2.85;;
1585;SDS011;786;48.718;9.514;2024-01-25T11:07:42;7.50;;;2.40;;
1585;SDS011;786;48.718;9.514;2024-01-25T11:10:11;8.65;;;2.97;;
1585;SDS011;786;48.718;9.514;2024-01-25T11:12:46;15.05;;;3.25;;
1585;SDS011;786;48.718;9.514;2024-01-25T11:15:18;8.52;;;2.53;;
1585;SDS011;786;48.718;9.514;2024-01-25T11:17:51;5.57;;;2.72;;
1585;SDS011;786;48.718;9.514;2024-01-25T11:20:20;10.02;;;2.47;;
1585;SDS011;786;48.718;9.514;2024-01-25T11:22:47;7.47;;;2.53;;
1585;SDS011;786;48.718;9.514;2024-01-25T11:25:13;9.27;;;3.17;;
1585;SDS011;786;48.718;9.514;2024-01-25T11:27:45;7.13;;;2.35;;
1585;SDS011;786;48.718;9.514;2024-01-25T11:30:12;11.27;;;3.00;;
1585;SDS011;786;48.718;9.514;2024-01-25T11:32:40;7.28;;;2.42;;
1585;SDS011;786;48.718;9.514;2024-01-25T11:35:08;7.88;;;2.90;;
1585;SDS011;786;48.718;9.514;2024-01-25T11:37:35;6.30;;;2.17;;
1585;SDS011;786;48.718;9.514;2024-01-25T11:40:03;9.80;;;2.60;;
1585;SDS011;786;48.718;9.514;2024-01-25T11:42:30;8.85;;;2.50;;
1585;SDS011;786;48.718;9.514;2024-01-25T11:44:56;9.02;;;2.80;;
1585;SDS011;786;48.718;9.514;2024-01-25T11:47:23;6.70;;;2.05;;
1585;SDS011;786;48.718;9.514;2024-01-25T11:49:50;5.90;;;2.30;;
1585;SDS011;786;48.718;9.514;2024-01-25T11:52:17;5.38;;;2.00;;
1585;SDS011;786;48.718;9.514;2024-01-25T11:54:43;7.05;;;2.78;;
1585;SDS011;786;48.718;9.514;2024-01-25T11:57:10;5.72;;;1.90;;
1585;SDS011;786;48.718;9.514;2024-01-25T11:59:36;9.32;;;1.95;;
1585;SDS011;786;48.718;9.514;2024-01-25T12:02:02;6.20;;;2.05;;
1585;SDS011;786;48.718;9.514;2024-01-25T12:04:29;6.95;;;2.13;;
1585;SDS011;786;48.718;9.514;2024-01-25T12:06:57;9.30;;;2.55;;
1585;SDS011;786;48.718;9.514;2024-01-25T12:09:23;6.05;;;2.20;;
1585;SDS011;786;48.718;9.514;2024-01-25T12:11:50;6.65;;;2.08;;
1585;SDS011;786;48.718;9.514;2024-01-25T12:14:16;4.78;;;2.00;;
1585;SDS011;786;48.718;9.514;2024-01-25T12:16:43;7.28;;;2.30;;
1585;SDS011;786;48.718;9.514;2024-01-25T12:19:09;6.65;;;1.92;;
1585;SDS011;786;48.718;9.514;2024-01-25T12:21:35;5.07;;;2.20;;
1585;SDS011;786;48.718;9.514;2024-01-25T12:24:04;4.95;;;2.15;;
1585;SDS011;786;48.718;9.514;2024-01-25T12:26:33;6.57;;;2.40;;
1585;SDS011;786;48.718;9.514;2024-01-25T12:29:00;7.18;;;2.38;;
1585;SDS011;786;48.718;9.514;2024-01-25T12:31:26;6.75;;;2.63;;
1585;SDS011;786;48.718;9.514;2024-01-25T12:33:52;6.38;;;2.55;;
1585;SDS011;786;48.718;9.514;2024-01-25T12:36:19;4.47;;;2.20;;
1585;SDS011;786;48.718;9.514;2024-01-25T12:38:45;11.32;;;3.08;;
1585;SDS011;786;48.718;9.514;2024-01-25T12:41:15;7.38;;;2.25;;
1585;SDS011;786;48.718;9.514;2024-01-25T12:43:41;9.38;;;2.85;;
1585;SDS011;786;48.718;9.514;2024-01-25T12:46:07;3.83;;;1.67;;
1585;SDS011;786;48.718;9.514;2024-01-25T12:48:34;5.65;;;2.35;;
1585;SDS011;786;48.718;9.514;2024-01-25T12:51:00;5.72;;;2.03;;
1585;SDS011;786;48.718;9.514;2024-01-25T12:53:27;7.22;;;2.70;;
1585;SDS011;786;48.718;9.514;2024-01-25T12:55:53;7.00;;;2.60;;
1585;SDS011;786;48.718;9.514;2024-01-25T12:58:21;9.27;;;3.38;;
1585;SDS011;786;48.718;9.514;2024-01-25T13:00:47;7.55;;;2.67;;
1585;SDS011;786;48.718;9.514;2024-01-25T13:03:14;7.88;;;2.95;;
1585;SDS011;786;48.718;9.514;2024-01-25T13:05:40;7.43;;;2.45;;
1585;SDS011;786;48.718;9.514;2024-01-25T13:08:06;8.20;;;2.38;;
1585;SDS011;786;48.718;9.514;2024-01-25T13:10:33;8.55;;;2.15;;
1585;SDS011;786;48.718;9.514;2024-01-25T13:12:59;5.25;;;2.15;;
1585;SDS011;786;48.718;9.514;2024-01-25T13:15:27;6.35;;;1.92;;
1585;SDS011;786;48.718;9.514;2024-01-25T13:17:53;5.68;;;1.83;;
1585;SDS011;786;48.718;9.514;2024-01-25T13:20:20;6.70;;;2.60;;
1585;SDS011;786;48.718;9.514;2024-01-25T13:22:46;5.60;;;1.85;;
1585;SDS011;786;48.718;9.514;2024-01-25T13:25:12;6.97;;;2.38;;
1585;SDS011;786;48.718;9.514;2024-01-25T13:27:40;6.45;;;1.95;;
1585;SDS011;786;48.718;9.514;2024-01-25T13:30:06;6.43;;;2.47;;
1585;SDS011;786;48.718;9.514;2024-01-25T13:32:37;7.05;;;1.90;;
1585;SDS011;786;48.718;9.514;2024-01-25T13:35:04;12.35;;;3.05;;
1585;SDS011;786;48.718;9.514;2024-01-25T13:37:31;7.53;;;2.80;;
1585;SDS011;786;48.718;9.514;2024-01-25T13:39:57;8.35;;;1.98;;
1585;SDS011;786;48.718;9.514;2024-01-25T13:42:24;4.97;;;2.28;;
1585;SDS011;786;48.718;9.514;2024-01-25T13:44:50;7.93;;;2.15;;
1585;SDS011;786;48.718;9.514;2024-01-25T13:47:16;6.18;;;1.73;;
1585;SDS011;786;48.718;9.514;2024-01-25T13:49:44;6.72;;;1.67;;
1585;SDS011;786;48.718;9.514;2024-01-25T13:52:16;6.47;;;1.90;;
1585;SDS011;786;48.718;9.514;2024-01-25T13:54:43;8.60;;;2.20;;
1585;SDS011;786;48.718;9.514;2024-01-25T13:57:10;9.35;;;2.28;;
1585;SDS011;786;48.718;9.514;2024-01-25T13:59:36;11.95;;;1.77;;
1585;SDS011;786;48.718;9.514;2024-01-25T14:02:02;6.35;;;1.77;;
1585;SDS011;786;48.718;9.514;2024-01-25T14:04:29;6.07;;;1.75;;
1585;SDS011;786;48.718;9.514;2024-01-25T14:06:57;8.25;;;1.90;;
1585;SDS011;786;48.718;9.514;2024-01-25T14:09:27;8.52;;;2.05;;
1585;SDS011;786;48.718;9.514;2024-01-25T14:11:55;6.50;;;2.00;;
1585;SDS011;786;48.718;9.514;2024-01-25T14:14:21;8.55;;;2.03;;
1585;SDS011;786;48.718;9.514;2024-01-25T14:16:47;10.60;;;2.22;;
1585;SDS011;786;48.718;9.514;2024-01-25T14:19:14;5.00;;;2.08;;
1585;SDS011;786;48.718;9.514;2024-01-25T14:21:42;10.45;;;3.10;;
1585;SDS011;786;48.718;9.514;2024-01-25T14:24:10;6.38;;;1.80;;
1585;SDS011;786;48.718;9.514;2024-01-25T14:26:36;7.20;;;2.08;;
1585;SDS011;786;48.718;9.514;2024-01-25T14:29:02;5.28;;;2.45;;
1585;SDS011;786;48.718;9.514;2024-01-25T14:31:29;5.30;;;1.80;;
1585;SDS011;786;48.718;9.514;2024-01-25T14:33:55;3.80;;;1.80;;
1585;SDS011;786;48.718;9.514;2024-01-25T14:36:21;6.55;;;2.22;;
1585;SDS011;786;48.718;9.514;2024-01-25T14:38:48;9.38;;;2.53;;
1585;SDS011;786;48.718;9.514;2024-01-25T14:41:15;5.22;;;2.72;;
1585;SDS011;786;48.718;9.514;2024-01-25T14:43:42;8.65;;;3.22;;
1585;SDS011;786;48.718;9.514;2024-01-25T14:46:09;7.93;;;2.47;;
1585;SDS011;786;48.718;9.514;2024-01-25T14:48:36;6.25;;;2.13;;
1585;SDS011;786;48.718;9.514;2024-01-25T14:51:02;6.68;;;2.53;;
1585;SDS011;786;48.718;9.514;2024-01-25T14:53:28;8.63;;;2.55;;
1585;SDS011;786;48.718;9.514;2024-01-25T14:55:55;8.88;;;2.38;;
1585;SDS011;786;48.718;9.514;2024-01-25T14:58:22;6.70;;;2.33;;
1585;SDS011;786;48.718;9.514;2024-01-25T15:00:49;7.05;;;1.95;;
1585;SDS011;786;48.718;9.514;2024-01-25T15:03:16;4.57;;;2.47;;
1585;SDS011;786;48.718;9.514;2024-01-25T15:05:42;9.55;;;2.47;;
1585;SDS011;786;48.718;9.514;2024-01-25T15:08:09;5.85;;;2.88;;
1585;SDS011;786;48.718;9.514;2024-01-25T15:10:35;6.53;;;2.78;;
1585;SDS011;786;48.718;9.514;2024-01-25T15:13:02;5.35;;;2.30;;
1585;SDS011;786;48.718;9.514;2024-01-25T15:15:30;9.32;;;2.75;;
1585;SDS011;786;48.718;9.514;2024-01-25T15:17:56;12.57;;;2.72;;
1585;SDS011;786;48.718;9.514;2024-01-25T15:20:22;8.50;;;2.28;;
1585;SDS011;786;48.718;9.514;2024-01-25T15:22:49;7.05;;;2.10;;
1585;SDS011;786;48.718;9.514;2024-01-25T15:25:16;4.63;;;2.20;;